Time;durP1;ratioP1;P1;durP2;ratioP2;P2;SDS_P1;SDS_P2;PMS_P1;PMS_P2;Temp;Humidity;BMP_temperature;BMP_pressure;BME280_temperature;BME280_humidity;BME280_pressure;Samples;Min_cycle;Max_cycle;Signal;HPM_P1;HPM_P2
2022/04/02 00:01:19;;;;;;;3.20;2.87;;;2.30;99.90;;;;;;5036558;28;20394;-63
2022/04/02 00:03:44;;;;;;;3.20;2.90;;;2.30;99.90;;;;;;5036514;28;20227;-63
2022/04/02 00:06:10;;;;;;;3.50;3.20;;;2.20;99.90;;;;;;5036463;28;20188;-66
2022/04/02 00:08:36;;;;;;;3.77;3.47;;;2.10;99.90;;;;;;5034515;28;20533;-63
2022/04/02 00:11:01;;;;;;;3.57;3.27;;;2.00;99.90;;;;;;5036392;28;20206;-63
2022/04/02 00:13:27;;;;;;;3.83;2.87;;;2.00;99.90;;;;;;5036319;28;20266;-63
2022/04/02 00:15:53;;;;;;;3.37;3.07;;;2.10;99.90;;;;;;5036353;28;20168;-66
2022/04/02 00:18:18;;;;;;;4.97;3.67;;;2.10;99.90;;;;;;5036297;28;20799;-63
2022/04/02 00:20:44;;;;;;;6.20;3.97;;;2.10;99.90;;;;;;5035568;28;20196;-66
2022/04/02 00:25:54;;;;;;;2.90;2.70;;;2.20;99.90;;;;;;5036334;28;20237;-66
2022/04/02 00:28:19;;;;;;;5.87;2.90;;;2.30;99.90;;;;;;5036047;28;20410;-67
2022/04/02 00:30:45;;;;;;;7.40;3.10;;;2.30;99.90;;;;;;5035451;28;20168;-66
2022/04/02 00:33:11;;;;;;;4.80;3.47;;;2.30;99.90;;;;;;5035862;28;20184;-63
2022/04/02 00:35:37;;;;;;;2.63;2.40;;;2.30;99.90;;;;;;5035825;28;20474;-63
2022/04/02 00:38:03;;;;;;;5.40;2.80;;;2.30;99.90;;;;;;5035810;28;20497;-63
2022/04/02 00:40:29;;;;;;;3.97;2.60;;;2.40;99.90;;;;;;5035209;28;20210;-63
2022/04/02 00:42:55;;;;;;;3.20;3.00;;;2.40;99.90;;;;;;5035631;28;20933;-63
2022/04/02 00:45:20;;;;;;;3.00;2.73;;;2.50;99.90;;;;;;5035117;28;20398;-66
2022/04/02 00:47:46;;;;;;;2.83;2.63;;;2.50;99.90;;;;;;5035536;28;20167;-67
2022/04/02 00:50:12;;;;;;;7.97;3.20;;;2.50;99.90;;;;;;5034912;28;20179;-63
2022/04/02 00:52:39;;;;;;;3.10;2.90;;;2.50;99.90;;;;;;5035580;28;20191;-66
2022/04/02 00:55:05;;;;;;;2.70;2.50;;;2.50;99.90;;;;;;5035617;28;20175;-66
2022/04/02 00:57:31;;;;;;;2.90;2.70;;;2.50;99.90;;;;;;5035629;28;20395;-66
2022/04/02 00:59:56;;;;;;;5.97;2.30;;;2.30;99.90;;;;;;5034680;28;20402;-63
2022/04/02 01:02:22;;;;;;;3.10;2.90;;;2.20;99.90;;;;;;5035400;28;20206;-65
2022/04/02 01:04:48;;;;;;;6.50;3.30;;;2.00;99.90;;;;;;5035430;28;20207;-63
2022/04/02 01:07:19;;;;;;;3.30;3.00;;;1.80;99.90;;;;;;5034024;28;20190;-63
2022/04/02 01:09:44;;;;;;;3.27;3.07;;;1.70;99.90;;;;;;5034658;28;20410;-63
2022/04/02 01:12:11;;;;;;;3.40;3.00;;;1.60;99.90;;;;;;5035153;28;20426;-67
2022/04/02 01:14:36;;;;;;;4.17;3.20;;;1.50;99.90;;;;;;5035215;28;20185;-66
2022/04/02 01:17:04;;;;;;;2.40;2.20;;;1.40;99.90;;;;;;5035130;28;20958;-66
2022/04/02 01:19:30;;;;;;;3.90;2.77;;;1.40;99.90;;;;;;5034607;28;20174;-66
2022/04/02 01:21:55;;;;;;;2.40;2.20;;;1.40;99.90;;;;;;5034945;28;20484;-63
2022/04/02 01:24:21;;;;;;;2.70;2.57;;;1.40;99.90;;;;;;5034833;28;20454;-63
2022/04/02 01:26:47;;;;;;;3.73;2.87;;;1.40;99.90;;;;;;5035091;28;20592;-66
2022/04/02 01:29:13;;;;;;;3.07;2.70;;;1.40;99.90;;;;;;5034276;28;20568;-62
2022/04/02 01:31:43;;;;;;;3.80;2.47;;;1.40;99.90;;;;;;5034702;28;20429;-65
2022/04/02 01:34:09;;;;;;;2.27;2.13;;;1.40;99.90;;;;;;5034744;28;20176;-65
2022/04/02 01:36:35;;;;;;;2.60;2.40;;;1.50;99.90;;;;;;5033746;28;20418;-63
2022/04/02 01:39:01;;;;;;;6.90;2.90;;;1.40;99.90;;;;;;5034006;28;20964;-66
2022/04/02 01:41:26;;;;;;;4.50;3.30;;;1.30;99.90;;;;;;5034597;28;20722;-63
2022/04/02 01:43:52;;;;;;;3.40;3.20;;;1.30;99.90;;;;;;5034496;28;20238;-65
2022/04/02 01:46:18;;;;;;;7.93;2.83;;;1.20;99.90;;;;;;5034457;28;20191;-63
2022/04/02 01:48:45;;;;;;;3.33;3.03;;;1.20;99.90;;;;;;5033827;28;20192;-66
2022/04/02 01:51:11;;;;;;;2.83;2.63;;;1.20;99.90;;;;;;5034343;28;20444;-63
2022/04/02 01:53:37;;;;;;;3.00;2.63;;;1.20;99.90;;;;;;5033369;28;20505;-63
2022/04/02 01:56:03;;;;;;;3.30;2.70;;;1.10;99.90;;;;;;5033387;28;20171;-63
2022/04/02 01:58:28;;;;;;;3.60;3.30;;;1.00;99.90;;;;;;5033804;28;20172;-72
2022/04/02 02:00:54;;;;;;;3.53;3.33;;;1.00;99.90;;;;;;5034369;28;20953;-65
2022/04/02 02:03:19;;;;;;;3.23;3.00;;;1.00;99.90;;;;;;5032903;28;20203;-62
2022/04/02 02:05:45;;;;;;;6.03;2.93;;;1.00;99.90;;;;;;5034280;28;20166;-62
2022/04/02 02:08:11;;;;;;;2.67;2.47;;;0.90;99.90;;;;;;5034287;28;20175;-65
2022/04/02 02:10:36;;;;;;;5.83;3.30;;;0.90;99.90;;;;;;5033381;28;20168;-66
2022/04/02 02:13:03;;;;;;;3.47;3.27;;;0.90;99.90;;;;;;5034083;28;20222;-65
2022/04/02 02:15:29;;;;;;;2.97;2.77;;;0.90;99.90;;;;;;5034190;28;20172;-66
2022/04/02 02:17:54;;;;;;;3.30;3.10;;;0.90;99.90;;;;;;5034092;28;20421;-66
2022/04/02 02:20:21;;;;;;;11.53;3.23;;;0.90;99.90;;;;;;5033347;28;20399;-65
2022/04/02 02:22:49;;;;;;;4.30;3.10;;;0.90;99.90;;;;;;5032795;28;20668;-66
2022/04/02 02:25:16;;;;;;;3.30;2.90;;;0.90;99.90;;;;;;5033881;28;20415;-66
2022/04/02 02:27:44;;;;;;;2.90;2.80;;;0.90;99.90;;;;;;5033714;28;20402;-66
2022/04/02 02:30:11;;;;;;;4.13;3.60;;;0.90;99.90;;;;;;5033232;28;20410;-66
2022/04/02 02:32:37;;;;;;;2.00;1.90;;;0.70;99.90;;;;;;5033664;28;20451;-66
2022/04/02 02:38:10;;;;;;;3.47;3.17;;;0.70;99.90;;;;;;5033631;28;20481;-63
2022/04/02 02:40:37;;;;;;;3.47;3.13;;;0.70;99.90;;;;;;5032954;28;20417;-65
2022/04/02 02:43:04;;;;;;;3.23;3.00;;;0.70;99.90;;;;;;5033392;28;20422;-63
2022/04/02 02:45:33;;;;;;;3.33;3.13;;;0.70;99.90;;;;;;5033532;28;20406;-65
2022/04/02 02:48:00;;;;;;;3.00;2.80;;;0.70;99.90;;;;;;5033539;28;20774;-62
2022/04/02 02:50:26;;;;;;;3.43;3.23;;;0.70;99.90;;;;;;5032884;28;20438;-62
2022/04/02 02:52:52;;;;;;;3.13;2.90;;;0.70;99.90;;;;;;5033254;28;20433;-63
2022/04/02 02:55:20;;;;;;;3.83;3.43;;;0.70;99.90;;;;;;5033383;28;20176;-66
2022/04/02 02:57:46;;;;;;;3.73;2.77;;;0.60;99.90;;;;;;5033551;28;20186;-62
2022/04/02 03:00:14;;;;;;;3.00;2.80;;;0.70;99.90;;;;;;5032960;28;20887;-62
2022/04/02 03:02:40;;;;;;;5.30;3.37;;;0.60;99.90;;;;;;5033190;28;20422;-65
2022/04/02 03:05:10;;;;;;;3.23;3.03;;;0.60;99.90;;;;;;5033342;28;20989;-63
2022/04/02 03:07:50;;;;;;;8.90;3.50;;;0.60;99.90;;;;;;5035491;28;20907;-63
2022/04/02 03:10:20;;;;;;;3.13;2.92;;;0.60;99.90;;;;;;5039318;28;20906;-62
2022/04/02 03:12:47;;;;;;;3.15;2.95;;;0.60;99.90;;;;;;5039950;28;20652;-63
2022/04/02 03:15:15;;;;;;;3.90;3.50;;;0.60;99.90;;;;;;5039916;28;20167;-63
2022/04/02 03:17:43;;;;;;;3.53;3.23;;;0.50;99.90;;;;;;5039913;28;20398;-65
2022/04/02 03:20:11;;;;;;;3.40;3.10;;;0.60;99.90;;;;;;5039159;28;20395;-66
2022/04/02 03:22:40;;;;;;;4.00;3.70;;;0.50;99.90;;;;;;5039843;28;20529;-63
2022/04/02 03:25:09;;;;;;;4.53;3.17;;;0.50;99.90;;;;;;5039674;28;20457;-67
2022/04/02 03:27:35;;;;;;;2.63;2.47;;;0.50;99.90;;;;;;5039742;28;20879;-66
2022/04/02 03:30:02;;;;;;;3.63;3.33;;;0.50;99.90;;;;;;5039164;28;20891;-66
2022/04/02 03:32:27;;;;;;;7.30;2.70;;;0.50;99.90;;;;;;5039624;28;20429;-63
2022/04/02 03:34:53;;;;;;;4.73;3.67;;;0.50;99.90;;;;;;5039695;28;20394;-67
2022/04/02 03:37:18;;;;;;;10.03;3.70;;;0.40;99.90;;;;;;5039565;28;20207;-65
2022/04/02 03:39:44;;;;;;;3.37;3.07;;;0.40;99.90;;;;;;5038982;28;20172;-66
2022/04/02 03:42:10;;;;;;;3.97;3.67;;;0.40;99.90;;;;;;5039624;28;20199;-63
2022/04/02 03:44:35;;;;;;;5.30;3.73;;;0.40;99.90;;;;;;5039506;28;20237;-66
2022/04/02 03:47:10;;;;;;;3.47;3.27;;;0.40;99.90;;;;;;5038440;28;20182;-63
2022/04/02 03:49:37;;;;;;;4.47;3.30;;;0.30;99.90;;;;;;5038878;28;20262;-63
2022/04/02 03:52:04;;;;;;;3.00;2.80;;;0.30;99.90;;;;;;5038058;28;20660;-63
2022/04/02 03:54:30;;;;;;;2.80;2.67;;;0.30;99.90;;;;;;5039522;28;20254;-62
2022/04/02 03:56:55;;;;;;;3.63;3.33;;;0.30;99.90;;;;;;5039529;28;20254;-63
2022/04/02 03:59:21;;;;;;;4.90;2.90;;;0.30;99.90;;;;;;5038624;28;20171;-64
2022/04/02 04:01:46;;;;;;;4.20;3.90;;;0.30;99.90;;;;;;5039747;28;20199;-63
2022/04/02 04:04:13;;;;;;;5.40;3.37;;;0.30;99.90;;;;;;5039563;28;20229;-66
2022/04/02 04:06:38;;;;;;;3.80;3.50;;;0.20;99.90;;;;;;5039505;28;20258;-63
2022/04/02 04:09:04;;;;;;;4.00;3.60;;;0.20;99.90;;;;;;5038828;28;20494;-63
2022/04/02 04:11:30;;;;;;;3.83;3.53;;;0.20;99.90;;;;;;5039294;28;20632;-66
2022/04/02 04:13:56;;;;;;;3.60;3.20;;;0.20;99.90;;;;;;5039388;28;20175;-63
2022/04/02 04:16:23;;;;;;;4.40;2.95;;;0.20;99.90;;;;;;5039435;28;20624;-63
2022/04/02 04:18:48;;;;;;;5.60;3.77;;;0.20;99.90;;;;;;5037291;28;20184;-67
2022/04/02 04:21:14;;;;;;;3.73;3.43;;;0.20;99.90;;;;;;5035944;28;20410;-67
2022/04/02 04:23:41;;;;;;;2.72;2.55;;;0.20;99.90;;;;;;5036103;28;20222;-66
2022/04/02 04:26:06;;;;;;;2.83;2.60;;;0.20;99.90;;;;;;5036240;28;20202;-66
2022/04/02 04:28:32;;;;;;;11.43;3.60;;;0.20;99.90;;;;;;5035353;28;20168;-63
2022/04/02 04:30:58;;;;;;;3.90;3.63;;;0.20;99.90;;;;;;5036097;28;20321;-66
2022/04/02 04:33:24;;;;;;;3.90;3.60;;;0.20;99.90;;;;;;5035891;28;20266;-63
2022/04/02 04:35:49;;;;;;;5.40;3.43;;;0.20;99.90;;;;;;5035841;28;20402;-63
2022/04/02 04:38:15;;;;;;;4.00;3.70;;;0.20;99.90;;;;;;5035919;28;20167;-63
2022/04/02 04:40:40;;;;;;;4.27;3.87;;;0.10;99.90;;;;;;5035209;28;20579;-63
2022/04/02 04:43:07;;;;;;;3.40;3.20;;;0.10;99.90;;;;;;5035620;28;20282;-63
2022/04/02 04:45:33;;;;;;;3.63;3.00;;;0.10;99.90;;;;;;5034356;28;20530;-67
2022/04/02 04:47:59;;;;;;;3.63;3.40;;;0.10;99.90;;;;;;5035585;28;20540;-63
2022/04/02 04:50:26;;;;;;;3.22;2.92;;;0.10;99.90;;;;;;5034988;28;20166;-67
2022/04/02 04:52:52;;;;;;;2.85;2.65;;;0.10;99.90;;;;;;5035526;28;20186;-67
2022/04/02 04:55:17;;;;;;;3.70;3.00;;;0.00;99.90;;;;;;5034535;28;20542;-62
2022/04/02 04:57:43;;;;;;;4.30;3.90;;;0.00;99.90;;;;;;5035841;28;20164;-63
2022/04/02 05:00:09;;;;;;;7.33;3.30;;;0.00;99.90;;;;;;5034765;28;20623;-67
2022/04/02 05:02:35;;;;;;;13.53;3.87;;;0.00;99.90;;;;;;5035382;28;20187;-62
2022/04/02 05:05:01;;;;;;;3.85;3.53;;;0.00;99.90;;;;;;5035436;28;20453;-67
2022/04/02 05:07:28;;;;;;;3.40;3.00;;;0.00;99.90;;;;;;5035443;28;20530;-63
2022/04/02 05:09:54;;;;;;;3.38;2.95;;;0.00;99.90;;;;;;5034548;28;20243;-63
2022/04/02 05:12:20;;;;;;;4.37;3.00;;;0.00;99.90;;;;;;5035244;28;20269;-66
2022/04/02 05:14:46;;;;;;;3.17;2.42;;;0.00;99.90;;;;;;5035335;28;20891;-66
2022/04/02 05:17:12;;;;;;;3.42;3.17;;;0.00;99.90;;;;;;5035268;28;20179;-63
2022/04/02 05:19:38;;;;;;;3.00;2.90;;;0.00;99.90;;;;;;5034466;28;20175;-63
2022/04/02 05:22:04;;;;;;;3.00;2.80;;;0.00;99.90;;;;;;5034873;28;20183;-67
2022/04/02 05:24:30;;;;;;;2.87;2.67;;;0.00;99.90;;;;;;5035078;28;20190;-63
2022/04/02 05:26:56;;;;;;;3.55;3.25;;;0.00;99.90;;;;;;5035033;28;20394;-63
2022/04/02 05:29:22;;;;;;;4.93;3.13;;;0.00;99.90;;;;;;5034281;28;20529;-66
2022/04/02 05:31:48;;;;;;;4.90;2.87;;;0.00;99.90;;;;;;5033589;28;20187;-63
2022/04/02 05:34:14;;;;;;;5.20;3.15;;;0.00;99.90;;;;;;5034781;28;20195;-67
2022/04/02 05:36:42;;;;;;;6.45;2.80;;;0.00;99.90;;;;;;5034742;28;20266;-66
2022/04/02 05:39:08;;;;;;;6.28;3.10;;;0.00;99.90;;;;;;5034169;28;20168;-66
2022/04/02 05:41:33;;;;;;;2.80;2.60;;;0.00;99.90;;;;;;5034613;28;20719;-63
2022/04/02 05:43:59;;;;;;;6.03;3.13;;;0.10;99.90;;;;;;5034526;28;20199;-67
2022/04/02 05:46:25;;;;;;;2.40;2.30;;;0.10;99.90;;;;;;5034524;28;20190;-67
2022/04/02 05:48:50;;;;;;;2.23;2.10;;;0.20;99.90;;;;;;5033874;28;20628;-67
2022/04/02 05:51:17;;;;;;;6.77;2.90;;;0.20;99.90;;;;;;5034596;28;20168;-67
2022/04/02 05:53:42;;;;;;;5.35;2.47;;;0.20;99.90;;;;;;5034490;28;20635;-63
2022/04/02 05:56:09;;;;;;;3.23;2.23;;;0.20;99.90;;;;;;5034297;28;20221;-63
2022/04/02 05:58:37;;;;;;;2.90;2.70;;;0.30;99.90;;;;;;5033656;28;20167;-67
2022/04/02 06:01:03;;;;;;;2.78;2.67;;;0.30;99.90;;;;;;5034246;28;20402;-64
2022/04/02 06:03:29;;;;;;;2.60;2.40;;;0.30;99.90;;;;;;5033270;28;20210;-63
2022/04/02 06:05:55;;;;;;;2.87;2.67;;;0.40;99.90;;;;;;5034364;28;20623;-67
2022/04/02 06:08:20;;;;;;;2.50;2.30;;;0.40;99.90;;;;;;5034059;28;20559;-72
2022/04/02 06:10:47;;;;;;;3.17;2.87;;;0.40;99.90;;;;;;5033728;28;20164;-66
2022/04/02 06:13:14;;;;;;;2.83;2.60;;;0.50;99.90;;;;;;5034506;28;20546;-67
2022/04/02 06:15:40;;;;;;;3.03;2.70;;;0.60;99.90;;;;;;5034142;28;20652;-66
2022/04/02 06:18:07;;;;;;;4.00;2.60;;;0.70;99.90;;;;;;5034141;28;20406;-66
2022/04/02 06:20:33;;;;;;;2.27;2.17;;;0.70;99.90;;;;;;5033268;28;20895;-65
2022/04/02 06:22:59;;;;;;;2.47;2.37;;;0.80;99.90;;;;;;5033799;28;20445;-62
2022/04/02 06:25:25;;;;;;;2.47;2.28;;;0.80;99.90;;;;;;5034090;28;20399;-63
2022/04/02 06:27:52;;;;;;;3.00;2.83;;;0.80;99.90;;;;;;5033928;28;20589;-62
2022/04/02 06:30:20;;;;;;;3.10;2.90;;;0.80;99.90;;;;;;5033220;28;20473;-62
2022/04/02 06:32:46;;;;;;;2.87;2.60;;;0.80;99.90;;;;;;5033698;28;20423;-63
2022/04/02 06:35:12;;;;;;;2.13;2.03;;;1.00;99.90;;;;;;5033848;28;20407;-62
2022/04/02 06:37:39;;;;;;;2.77;1.90;;;1.00;99.90;;;;;;5033772;28;20168;-67
2022/04/02 06:40:09;;;;;;;2.37;2.17;;;1.10;99.90;;;;;;5033034;28;20179;-66
2022/04/02 06:42:35;;;;;;;2.80;2.60;;;1.20;99.90;;;;;;5031690;28;20795;-63
2022/04/02 06:45:02;;;;;;;2.10;2.00;;;1.40;99.90;;;;;;5033492;28;20453;-63
2022/04/02 06:47:31;;;;;;;2.28;2.17;;;1.50;99.90;;;;;;5033608;28;20413;-62
2022/04/02 06:49:57;;;;;;;4.30;2.23;;;1.70;99.90;;;;;;5032992;28;20168;-62
2022/04/02 06:52:25;;;;;;;2.13;1.93;;;1.80;99.90;;;;;;5033364;28;20440;-62
2022/04/02 06:54:50;;;;;;;2.38;2.17;;;1.90;99.90;;;;;;5033389;28;20539;-63
2022/04/02 06:57:20;;;;;;;2.43;2.33;;;2.00;99.90;;;;;;5033571;28;20254;-62
2022/04/02 06:59:46;;;;;;;2.27;2.17;;;2.10;99.90;;;;;;5032664;28;20186;-62
2022/04/02 07:02:12;;;;;;;2.63;1.97;;;2.30;99.90;;;;;;5033285;28;20460;-62
2022/04/02 07:04:38;;;;;;;6.13;2.47;;;2.40;99.90;;;;;;5033235;28;20497;-65
2022/04/02 07:07:04;;;;;;;2.57;2.30;;;2.40;99.90;;;;;;5033145;28;20449;-62
2022/04/02 07:09:30;;;;;;;2.30;2.10;;;2.50;99.90;;;;;;5031376;28;20406;-66
2022/04/02 07:11:55;;;;;;;2.17;1.97;;;2.60;99.90;;;;;;5033162;28;20191;-62
2022/04/02 07:14:22;;;;;;;2.43;2.13;;;2.70;99.90;;;;;;5033397;28;20164;-62
2022/04/02 07:16:48;;;;;;;2.23;2.10;;;2.80;99.90;;;;;;5033355;28;20168;-67
2022/04/02 07:19:14;;;;;;;4.60;2.63;;;2.90;99.90;;;;;;5032661;28;20406;-66
2022/04/02 07:21:43;;;;;;;2.80;2.60;;;3.00;99.90;;;;;;5033078;28;20507;-66
2022/04/02 07:24:11;;;;;;;1.93;1.83;;;3.10;99.90;;;;;;5033115;28;20473;-62
2022/04/02 07:26:38;;;;;;;1.87;1.70;;;3.20;99.90;;;;;;5033351;28;20394;-66
2022/04/02 07:29:04;;;;;;;2.53;2.33;;;3.40;99.90;;;;;;5032377;28;20391;-63
2022/04/02 07:31:29;;;;;;;2.37;2.17;;;3.50;99.90;;;;;;5033177;28;21005;-62
2022/04/02 07:33:55;;;;;;;2.70;2.00;;;3.50;99.90;;;;;;5033068;28;20171;-62
2022/04/02 07:36:59;;;;;;;3.17;2.20;;;3.60;99.90;;;;;;5033156;28;20405;-66
2022/04/02 07:39:37;;;;;;;4.23;2.10;;;3.80;99.90;;;;;;5032368;28;20727;-62
2022/04/02 07:42:26;;;;;;;2.00;1.90;;;3.90;99.90;;;;;;5032941;28;20982;-62
2022/04/02 07:45:11;;;;;;;1.97;1.87;;;3.90;99.90;;;;;;5032910;28;20445;-62
2022/04/02 07:47:41;;;;;;;1.90;1.80;;;4.00;99.90;;;;;;5033205;28;20409;-67
2022/04/02 07:50:14;;;;;;;1.97;1.87;;;3.90;99.90;;;;;;5032334;28;20472;-66
2022/04/02 07:52:51;;;;;;;2.00;1.90;;;3.90;99.90;;;;;;5032893;28;20425;-67
2022/04/02 07:55:18;;;;;;;2.57;2.37;;;3.90;99.90;;;;;;5034781;28;20405;-62
2022/04/02 07:57:46;;;;;;;1.90;1.80;;;3.80;99.90;;;;;;5036604;28;20891;-62
2022/04/02 08:00:14;;;;;;;1.60;1.50;;;3.90;99.90;;;;;;5036105;28;20834;-67
2022/04/02 08:02:45;;;;;;;1.70;1.60;;;3.90;99.90;;;;;;5036517;28;20969;-61
2022/04/02 08:05:14;;;;;;;1.67;1.57;;;3.90;99.90;;;;;;5036317;28;20534;-66
2022/04/02 08:07:49;;;;;;;1.97;1.87;;;4.00;99.90;;;;;;5036279;28;20830;-62
2022/04/02 08:10:19;;;;;;;2.07;1.83;;;4.00;99.90;;;;;;5035779;28;20394;-67
2022/04/02 08:12:45;;;;;;;1.67;1.57;;;4.10;99.90;;;;;;5036591;28;20501;-67
2022/04/02 08:15:16;;;;;;;3.83;2.03;;;4.20;99.90;;;;;;5035240;28;20402;-67
2022/04/02 08:17:44;;;;;;;1.73;1.63;;;4.20;99.90;;;;;;5036329;28;20414;-62
2022/04/02 08:20:12;;;;;;;1.80;1.70;;;4.30;99.90;;;;;;5035677;28;20396;-67
2022/04/02 08:22:38;;;;;;;1.87;1.77;;;4.40;99.90;;;;;;5036147;28;20423;-62
2022/04/02 08:25:05;;;;;;;3.03;2.73;;;4.50;99.90;;;;;;5036171;28;21012;-61
2022/04/02 08:27:35;;;;;;;1.70;1.60;;;4.60;99.90;;;;;;5036108;28;20164;-61
2022/04/02 08:30:15;;;;;;;2.17;1.97;;;4.70;99.90;;;;;;5035501;28;20394;-67
2022/04/02 08:32:53;;;;;;;2.20;2.10;;;4.80;99.90;;;;;;5036181;28;20790;-67
2022/04/02 08:35:34;;;;;;;6.57;2.13;;;4.60;99.90;;;;;;5035944;28;20767;-62
2022/04/02 08:38:12;;;;;;;1.80;1.60;;;4.40;99.90;;;;;;5035817;28;20402;-62
2022/04/02 08:41:09;;;;;;;1.80;1.70;;;4.30;99.90;;;;;;5035240;28;20582;-62
2022/04/02 08:43:50;;;;;;;2.37;1.70;;;4.50;99.90;;;;;;5035550;28;20453;-68
2022/04/02 08:46:35;;;;;;;1.93;1.83;;;4.70;99.90;;;;;;5035792;28;20451;-62
2022/04/02 08:49:31;;;;;;;2.10;2.00;;;4.90;99.90;;;;;;5035031;28;20413;-62
2022/04/02 08:52:19;;;;;;;1.70;1.60;;;5.10;99.90;;;;;;5035548;28;20458;-62
2022/04/02 08:54:57;;;;;;;3.33;2.43;;;5.20;99.90;;;;;;5035457;28;20834;-62
2022/04/02 08:57:32;;;;;;;1.73;1.63;;;5.30;99.90;;;;;;5034174;28;20818;-62
2022/04/02 09:00:07;;;;;;;1.53;1.43;;;5.30;99.90;;;;;;5034777;28;20406;-62
2022/04/02 09:03:09;;;;;;;2.13;1.80;;;5.20;99.90;;;;;;5035457;28;20429;-62
2022/04/02 09:05:52;;;;;;;1.90;1.80;;;5.30;99.90;;;;;;5033402;28;20434;-66
2022/04/02 09:08:42;;;;;;;3.00;2.40;;;5.50;99.90;;;;;;5035317;28;20425;-62
2022/04/02 09:11:30;;;;;;;2.13;1.97;;;5.30;99.90;;;;;;5035320;28;20748;-63
2022/04/02 09:13:59;;;;;;;2.53;2.33;;;5.40;99.90;;;;;;5034959;28;20419;-67
2022/04/02 09:16:41;;;;;;;2.37;2.17;;;5.70;99.90;;;;;;5035568;28;20403;-68
2022/04/02 09:19:24;;;;;;;1.90;1.80;;;5.90;99.90;;;;;;5034481;28;20501;-67
2022/04/02 09:22:21;;;;;;;2.50;1.80;;;6.10;99.90;;;;;;5035010;28;20424;-63
2022/04/02 09:25:01;;;;;;;1.87;1.77;;;6.00;99.90;;;;;;5034917;28;20465;-68
2022/04/02 09:28:07;;;;;;;8.10;2.13;;;6.10;99.90;;;;;;5033804;28;20807;-63
2022/04/02 09:30:48;;;;;;;2.50;1.80;;;5.90;99.90;;;;;;5034384;28;20408;-67
2022/04/02 09:33:33;;;;;;;1.97;1.87;;;5.80;99.90;;;;;;5033484;28;20438;-63
2022/04/02 09:36:26;;;;;;;2.80;2.10;;;6.20;99.90;;;;;;5034847;28;20901;-63
2022/04/02 09:39:02;;;;;;;20.53;2.93;;;6.10;99.90;;;;;;5034300;28;20497;-67
2022/04/02 09:41:54;;;;;;;2.90;2.03;;;6.30;99.90;;;;;;5033399;28;20430;-63
2022/04/02 09:45:01;;;;;;;2.17;2.07;;;6.70;99.90;;;;;;5041206;28;20461;-65
2022/04/02 09:47:49;;;;;;;2.00;1.90;;;6.90;99.90;;;;;;5034658;28;20408;-63
2022/04/02 09:50:23;;;;;;;2.20;2.10;;;6.80;99.90;;;;;;5033883;28;20402;-61
2022/04/02 09:53:16;;;;;;;1.80;1.70;;;6.90;99.90;;;;;;5034535;28;20442;-67
2022/04/02 09:56:16;;;;;;;2.03;1.93;;;6.80;99.90;;;;;;5034364;28;20401;-67
2022/04/02 09:59:15;;;;;;;3.13;2.27;;;6.60;99.10;;;;;;5033807;28;20415;-67
2022/04/02 10:01:58;;;;;;;2.27;2.07;;;7.00;99.90;;;;;;5034299;28;20425;-67
2022/04/02 10:04:38;;;;;;;2.37;2.27;;;7.70;99.90;;;;;;5034150;28;20449;-63
2022/04/02 10:07:07;;;;;;;9.03;2.50;;;8.20;99.90;;;;;;5034117;28;20426;-66
2022/04/02 10:09:37;;;;;;;2.30;2.10;;;8.50;99.90;;;;;;5033653;28;20451;-62
2022/04/02 10:12:03;;;;;;;1.97;1.87;;;8.90;98.60;;;;;;5034112;28;20465;-66
2022/04/02 10:14:30;;;;;;;1.83;1.73;;;9.10;97.40;;;;;;5033952;28;20418;-63
2022/04/02 10:16:57;;;;;;;4.70;2.10;;;9.10;92.20;;;;;;5033485;28;20879;-66
2022/04/02 10:19:28;;;;;;;2.07;1.70;;;8.70;92.00;;;;;;5033436;28;20826;-67
2022/04/02 10:21:58;;;;;;;1.97;1.77;;;8.60;91.90;;;;;;5033993;28;20425;-63
2022/04/02 10:24:25;;;;;;;1.70;1.60;;;8.90;92.00;;;;;;5033735;28;20596;-64
2022/04/02 10:26:56;;;;;;;2.33;2.07;;;9.20;93.70;;;;;;5033977;28;20799;-63
2022/04/02 10:29:47;;;;;;;3.00;2.17;;;9.40;92.20;;;;;;5033245;28;20489;-66
2022/04/02 10:32:39;;;;;;;2.53;2.33;;;9.60;92.30;;;;;;5033740;28;20476;-64
2022/04/02 10:35:11;;;;;;;5.53;2.10;;;9.40;93.40;;;;;;5019260;28;20415;-67
2022/04/02 10:37:39;;;;;;;2.37;2.03;;;9.40;92.30;;;;;;5033967;28;20395;-67
2022/04/02 10:40:11;;;;;;;5.70;2.63;;;9.30;92.20;;;;;;5033091;28;20406;-66
2022/04/02 10:42:39;;;;;;;2.23;2.03;;;8.90;92.00;;;;;;5033475;28;20510;-63
2022/04/02 10:45:14;;;;;;;2.13;2.00;;;9.00;92.10;;;;;;5033662;28;20465;-67
2022/04/02 10:47:46;;;;;;;2.03;1.93;;;8.80;92.00;;;;;;5033622;28;20790;-63
2022/04/02 10:50:12;;;;;;;2.00;1.90;;;9.10;92.10;;;;;;5032937;28;20390;-63
2022/04/02 10:52:40;;;;;;;3.23;2.07;;;9.50;92.30;;;;;;5033364;28;20442;-68
2022/04/02 10:55:06;;;;;;;2.60;2.40;;;9.60;92.30;;;;;;5033522;28;20442;-67
2022/04/02 10:57:35;;;;;;;5.87;2.43;;;9.60;92.30;;;;;;5033471;28;20426;-68
2022/04/02 11:00:04;;;;;;;2.30;2.20;;;9.70;92.30;;;;;;5032855;28;20416;-68
2022/04/02 11:02:50;;;;;;;2.17;2.00;;;9.40;92.10;;;;;;5033329;28;20430;-66
2022/04/02 11:05:17;;;;;;;2.60;2.20;;;9.60;87.80;;;;;;5033475;28;20501;-67
2022/04/02 11:07:45;;;;;;;2.33;2.13;;;9.90;88.00;;;;;;5033264;28;20429;-63
2022/04/02 11:10:19;;;;;;;2.43;2.07;;;10.30;89.00;;;;;;5032730;28;20429;-63
2022/04/02 11:12:48;;;;;;;2.63;2.43;;;9.50;79.80;;;;;;5033109;28;20419;-67
2022/04/02 11:15:14;;;;;;;2.50;2.30;;;9.20;78.90;;;;;;5032025;28;20411;-68
2022/04/02 11:17:46;;;;;;;1.97;1.87;;;9.30;81.00;;;;;;5033404;28;20941;-67
2022/04/02 11:20:18;;;;;;;2.10;1.90;;;9.70;83.10;;;;;;5032734;28;20164;-67
2022/04/02 11:22:57;;;;;;;2.83;2.07;;;10.10;77.60;;;;;;5033096;28;20426;-64
2022/04/02 11:25:25;;;;;;;2.87;2.20;;;10.30;83.20;;;;;;5033238;28;20442;-67
2022/04/02 11:27:54;;;;;;;3.00;2.10;;;10.60;82.50;;;;;;5033269;28;20452;-67
2022/04/02 11:30:21;;;;;;;2.20;2.10;;;11.00;83.70;;;;;;5036499;28;20484;-67
2022/04/02 11:32:48;;;;;;;2.13;1.93;;;10.60;74.30;;;;;;5037292;28;20425;-68
2022/04/02 11:35:22;;;;;;;1.70;1.60;;;10.50;70.00;;;;;;5035939;28;20783;-63
2022/04/02 11:38:03;;;;;;;2.67;2.57;;;10.70;76.30;;;;;;5037151;28;20413;-63
2022/04/02 11:40:31;;;;;;;2.47;2.10;;;11.10;79.10;;;;;;5036415;28;20404;-63
2022/04/02 11:43:00;;;;;;;2.17;1.97;;;11.10;74.90;;;;;;5036953;28;20425;-67
2022/04/02 11:45:27;;;;;;;2.43;2.27;;;11.10;73.00;;;;;;5036885;28;20978;-68
2022/04/02 11:48:07;;;;;;;2.03;1.87;;;10.70;67.80;;;;;;5036908;28;20394;-68
2022/04/02 11:50:37;;;;;;;2.30;2.10;;;10.00;63.30;;;;;;5036224;28;20394;-67
2022/04/02 11:53:03;;;;;;;5.80;2.43;;;9.90;66.50;;;;;;5035420;28;20464;-68
2022/04/02 11:55:34;;;;;;;5.63;2.00;;;9.90;64.50;;;;;;5036753;28;20408;-68
2022/04/02 11:58:02;;;;;;;2.60;2.00;;;9.90;65.40;;;;;;5036821;28;20407;-67
2022/04/02 12:00:29;;;;;;;2.07;1.97;;;9.50;62.00;;;;;;5035986;28;20408;-63
2022/04/02 12:02:59;;;;;;;2.63;2.13;;;8.90;57.50;;;;;;5036607;28;20506;-67
2022/04/02 12:05:36;;;;;;;2.00;1.90;;;8.70;57.80;;;;;;5036406;28;20461;-68
2022/04/02 12:08:02;;;;;;;2.10;2.00;;;8.10;55.90;;;;;;5036618;28;20921;-63
2022/04/02 12:10:28;;;;;;;1.93;1.80;;;7.80;47.20;;;;;;5035857;28;20449;-63
2022/04/02 12:12:59;;;;;;;2.20;2.10;;;7.70;39.50;;;;;;5036346;28;20441;-67
2022/04/02 12:15:25;;;;;;;2.07;1.97;;;7.80;45.60;;;;;;5036187;28;20632;-68
2022/04/02 12:17:53;;;;;;;3.20;1.93;;;8.30;50.40;;;;;;5036488;28;20402;-67
2022/04/02 12:20:30;;;;;;;2.90;2.70;;;8.80;53.70;;;;;;5035656;28;20483;-67
2022/04/02 12:23:18;;;;;;;1.90;1.80;;;9.40;52.70;;;;;;5036379;28;20448;-67
2022/04/02 12:25:56;;;;;;;4.37;2.50;;;9.80;52.40;;;;;;5036259;28;20515;-63
2022/04/02 12:28:22;;;;;;;1.90;1.80;;;9.80;53.20;;;;;;5036023;28;20432;-69
2022/04/02 12:30:51;;;;;;;2.67;1.73;;;10.40;53.40;;;;;;5035657;28;20479;-67
2022/04/02 12:33:23;;;;;;;2.03;1.83;;;10.80;51.90;;;;;;5036064;28;20783;-64
2022/04/02 12:36:07;;;;;;;2.03;1.93;;;11.30;54.90;;;;;;5036112;28;20394;-63
2022/04/02 12:38:35;;;;;;;1.67;1.57;;;11.50;50.50;;;;;;5035415;28;20410;-64
2022/04/02 12:41:02;;;;;;;2.73;1.80;;;11.60;49.30;;;;;;5035060;28;20395;-69
2022/04/02 12:43:38;;;;;;;3.03;1.60;;;12.50;56.80;;;;;;5035858;28;20369;-68
2022/04/02 12:46:04;;;;;;;1.93;1.83;;;12.50;43.50;;;;;;5036004;28;20395;-68
2022/04/02 12:48:45;;;;;;;2.17;1.97;;;11.90;40.90;;;;;;5034015;28;20437;-66
2022/04/02 12:51:15;;;;;;;3.23;2.43;;;11.50;36.70;;;;;;5035682;28;20163;-67
2022/04/02 12:53:43;;;;;;;3.33;1.90;;;11.10;34.50;;;;;;5035638;28;20453;-68
2022/04/02 12:56:23;;;;;;;2.50;2.30;;;11.50;36.80;;;;;;5035778;28;20405;-63
2022/04/02 12:58:50;;;;;;;5.03;2.60;;;11.30;34.90;;;;;;5034985;28;20385;-68
2022/04/02 13:01:25;;;;;;;2.00;1.90;;;12.30;36.80;;;;;;5035448;28;20413;-63
2022/04/02 13:03:54;;;;;;;2.77;1.50;;;12.70;35.10;;;;;;5035308;28;20444;-64
2022/04/02 13:06:22;;;;;;;1.70;1.57;;;13.50;37.40;;;;;;5035329;28;20853;-64
2022/04/02 13:08:53;;;;;;;2.43;1.60;;;14.20;38.70;;;;;;5034821;28;20869;-64
2022/04/02 13:11:35;;;;;;;2.10;2.00;;;14.40;33.50;;;;;;5035299;28;20429;-68
2022/04/02 13:14:04;;;;;;;2.73;2.37;;;13.70;29.10;;;;;;5035183;28;20860;-67
2022/04/02 13:16:38;;;;;;;2.13;1.50;;;13.70;27.80;;;;;;5035422;28;20406;-68